Time;durP1;ratioP1;P1;durP2;ratioP2;P2;SDS_P1;SDS_P2;PMS_P1;PMS_P2;Temp;Humidity;BMP_temperature;BMP_pressure;BME280_temperature;BME280_humidity;BME280_pressure;Samples;Min_cycle;Max_cycle;Signal;HPM_P1;HPM_P2
2022/07/26 00:01:19;;;;;;;1.90;0.75;;;;;;;21.57;68.24;97769.00;18432998;32;20069;-61
2022/07/26 00:11:22;;;;;;;3.58;0.75;;;;;;;21.60;69.34;97780.16;18432863;32;20053;-61
2022/07/26 00:21:24;;;;;;;0.70;0.67;;;;;;;21.54;70.33;97776.00;18433144;32;20099;-61
2022/07/26 00:31:27;;;;;;;2.00;0.50;;;;;;;21.49;71.10;97782.50;18432752;32;20433;-61
2022/07/26 00:41:29;;;;;;;2.00;0.60;;;;;;;21.46;72.31;97768.59;18432165;32;20057;-61
2022/07/26 00:51:32;;;;;;;0.97;0.57;;;;;;;21.40;72.94;97769.97;18430524;32;20449;-61
2022/07/26 01:01:34;;;;;;;2.65;0.65;;;;;;;21.36;73.82;97780.84;18429874;32;20057;-61
2022/07/26 01:11:37;;;;;;;0.83;0.53;;;;;;;21.37;74.23;97781.66;18430960;32;20095;-61
2022/07/26 01:21:40;;;;;;;1.55;0.73;;;;;;;21.33;75.86;97787.03;18437947;32;20084;-61
2022/07/26 01:31:43;;;;;;;1.60;0.73;;;;;;;21.13;77.73;97780.41;18443428;32;20094;-61
2022/07/26 01:41:45;;;;;;;1.07;0.80;;;;;;;21.03;78.62;97778.88;18442951;32;20081;-61
2022/07/26 01:51:47;;;;;;;3.60;0.60;;;;;;;21.01;79.91;97788.59;18442159;32;20061;-61
2022/07/26 02:01:50;;;;;;;1.02;0.70;;;;;;;20.87;80.42;97795.19;18501157;32;20077;-61
2022/07/26 02:11:53;;;;;;;1.73;0.80;;;;;;;20.75;81.15;97795.91;18505575;32;20057;-61
2022/07/26 02:21:56;;;;;;;0.70;0.60;;;;;;;20.59;81.35;97790.16;18505171;32;20069;-61
2022/07/26 02:31:58;;;;;;;0.87;0.37;;;;;;;20.55;82.29;97778.25;18503521;32;20433;-61
2022/07/26 02:42:02;;;;;;;0.93;0.50;;;;;;;20.52;83.20;97791.84;18503789;32;20065;-61
2022/07/26 02:52:05;;;;;;;0.82;0.65;;;;;;;20.48;83.88;97786.22;18502965;32;20060;-61
2022/07/26 03:02:07;;;;;;;0.50;0.45;;;;;;;20.42;84.67;97798.50;18436890;32;20105;-61
2022/07/26 03:12:10;;;;;;;1.10;0.62;;;;;;;20.37;84.52;97782.25;18437350;32;20079;-61
2022/07/26 03:22:12;;;;;;;1.25;0.80;;;;;;;20.31;84.79;97770.66;18437176;32;20079;-61
2022/07/26 03:32:15;;;;;;;3.53;0.73;;;;;;;20.24;84.71;97775.84;18436089;32;20081;-61
2022/07/26 03:42:18;;;;;;;2.23;0.60;;;;;;;20.18;85.39;97772.47;18435685;32;20057;-61
2022/07/26 03:52:20;;;;;;;0.62;0.40;;;;;;;20.16;86.37;97783.00;18434588;32;20088;-61
2022/07/26 04:02:23;;;;;;;1.30;0.63;;;;;;;20.16;87.72;97783.00;18497415;32;20076;-61
2022/07/26 04:12:26;;;;;;;2.57;0.97;;;;;;;20.05;87.53;97779.00;18498280;32;20505;-61
2022/07/26 04:22:29;;;;;;;1.75;0.75;;;;;;;20.03;87.45;97787.56;18497837;32;20052;-61
2022/07/26 04:32:31;;;;;;;1.63;0.83;;;;;;;20.04;87.77;97785.63;18483348;32;20075;-61
2022/07/26 04:42:35;;;;;;;1.05;0.73;;;;;;;20.06;87.86;97770.44;18496422;32;20067;-61
2022/07/26 04:52:38;;;;;;;1.00;0.80;;;;;;;19.93;88.35;97779.69;18494469;32;20385;-61
2022/07/26 05:02:41;;;;;;;2.22;1.12;;;;;;;19.88;88.41;97777.94;18496014;32;20099;-61
2022/07/26 05:12:47;;;;;;;3.60;1.07;;;;;;;20.05;87.22;97779.00;18495533;32;20068;-61
2022/07/26 05:22:50;;;;;;;1.23;0.82;;;;;;;20.17;86.96;97786.53;18480794;32;20061;-61
2022/07/26 05:32:53;;;;;;;;;;;;;;;19.94;87.89;97801.31;18481191;32;20093;-61
2022/07/26 05:42:56;;;;;;;2.08;1.00;;;;;;;19.82;89.00;97803.16;18494899;32;19956;-61
2022/07/26 05:53:00;;;;;;;4.35;1.10;;;;;;;19.97;88.21;97800.66;18480153;32;20101;-61
2022/07/26 06:03:20;;;;;;;3.10;1.30;;;;;;;20.11;87.77;97802.38;18466672;32;20083;-61
2022/07/26 06:13:23;;;;;;;6.50;1.40;;;;;;;20.35;87.38;97806.47;18480793;32;20493;-61
2022/07/26 06:23:26;;;;;;;3.03;1.20;;;;;;;20.33;87.62;97820.53;18505464;32;20449;-61
2022/07/26 06:33:35;;;;;;;1.65;1.00;;;;;;;20.53;86.07;97831.91;18504481;32;20065;-61
2022/07/26 06:43:39;;;;;;;2.37;1.33;;;;;;;21.15;84.39;97833.12;18503920;32;20049;-61
2022/07/26 06:53:42;;;;;;;2.00;1.10;;;;;;;21.42;80.20;97845.53;18502517;32;20053;-61
2022/07/26 07:03:46;;;;;;;4.07;1.30;;;;;;;21.43;81.75;97846.31;18501566;32;20375;-62
2022/07/26 07:13:49;;;;;;;2.08;1.50;;;;;;;21.79;78.54;97837.44;18502235;32;20404;-62
2022/07/26 07:23:53;;;;;;;2.33;1.10;;;;;;;21.63;77.97;97844.72;18500794;32;20053;-61
2022/07/26 07:33:57;;;;;;;3.03;1.20;;;;;;;22.07;75.85;97847.00;18486380;32;20125;-61
2022/07/26 07:44:00;;;;;;;2.00;1.00;;;;;;;22.08;73.20;97849.41;18500126;32;20141;-61
2022/07/26 07:54:03;;;;;;;3.08;1.48;;;;;;;22.72;72.34;97846.34;18485248;32;20080;-62
2022/07/26 08:04:08;;;;;;;2.92;1.42;;;;;;;23.58;67.57;97840.62;18484434;32;20112;-62
2022/07/26 08:14:10;;;;;;;2.72;1.40;;;;;;;23.67;65.57;97832.19;18498160;32;20143;-62
2022/07/26 08:24:15;;;;;;;2.72;1.17;;;;;;;24.07;64.63;97834.06;18497882;32;20065;-61
2022/07/26 08:34:22;;;;;;;2.17;1.25;;;;;;;24.47;59.30;97829.50;18483579;32;20405;-61
2022/07/26 08:44:25;;;;;;;;;;;;;;;24.60;59.35;97832.94;18496933;32;20461;-61
2022/07/26 08:54:28;;;;;;;1.90;1.20;;;;;;;24.85;56.93;97839.09;18482332;32;19948;-62
2022/07/26 09:04:35;;;;;;;2.05;1.27;;;;;;;25.26;56.28;97838.81;18468356;32;20078;-62
2022/07/26 09:14:45;;;;;;;1.37;0.90;;;;;;;25.69;54.63;97840.44;18495677;32;20065;-61
2022/07/26 09:24:49;;;;;;;1.33;0.90;;;;;;;25.64;50.53;97845.50;18494020;32;20093;-62
2022/07/26 09:35:09;;;;;;;1.67;0.90;;;;;;;25.45;52.90;97840.75;18480886;32;20444;-62
2022/07/26 09:45:35;;;;;;;1.85;1.00;;;;;;;26.47;47.32;97833.12;18505347;32;20048;-61
2022/07/26 09:55:44;;;;;;;1.02;0.70;;;;;;;26.78;45.61;97832.03;18506686;32;20057;-61
2022/07/26 10:05:47;;;;;;;1.98;0.70;;;;;;;27.28;46.14;97850.56;18506549;32;20104;-61
2022/07/26 10:15:50;;;;;;;1.48;1.00;;;;;;;26.49;42.66;97861.25;18491533;32;20103;-61
2022/07/26 10:25:58;;;;;;;2.33;0.70;;;;;;;26.49;44.17;97861.25;18491114;32;20079;-61
2022/07/26 10:36:21;;;;;;;1.05;0.60;;;;;;;26.00;48.46;97858.06;18504480;32;20126;-61
2022/07/26 10:46:26;;;;;;;3.60;0.60;;;;;;;26.86;47.48;97846.81;18503876;32;20422;-61
2022/07/26 10:56:29;;;;;;;2.60;0.80;;;;;;;26.38;42.27;97856.38;18502369;32;20225;-61
2022/07/26 11:06:35;;;;;;;1.25;0.70;;;;;;;26.01;49.49;97848.56;18502400;32;20071;-61
2022/07/26 11:16:42;;;;;;;1.27;0.77;;;;;;;26.22;50.79;97841.84;18488209;32;20057;-61
2022/07/26 11:26:46;;;;;;;0.85;0.50;;;;;;;26.80;49.19;97845.53;18500341;32;20098;-61
2022/07/26 11:36:51;;;;;;;2.10;0.80;;;;;;;25.92;51.00;97828.63;18500595;32;20061;-61
2022/07/26 11:46:54;;;;;;;2.20;0.73;;;;;;;26.20;46.80;97822.00;18486103;32;20078;-61
2022/07/26 11:57:02;;;;;;;3.17;0.70;;;;;;;26.14;49.67;97818.72;18484979;32;20071;-61
2022/07/26 12:07:15;;;;;;;1.65;0.60;;;;;;;26.96;47.03;97804.53;18498634;32;20361;-61
2022/07/26 12:17:18;;;;;;;1.27;0.60;;;;;;;28.55;37.84;97814.56;18484863;32;20057;-61
2022/07/26 12:27:25;;;;;;;3.15;0.70;;;;;;;29.20;40.78;97812.97;18497791;32;20056;-61
2022/07/26 12:37:29;;;;;;;0.88;0.70;;;;;;;29.71;42.66;97802.00;18483112;32;20440;-61
2022/07/26 12:47:44;;;;;;;3.58;0.77;;;;;;;29.79;39.53;97802.81;18496466;32;20357;-61
2022/07/26 12:57:48;;;;;;;2.03;0.80;;;;;;;30.06;39.06;97790.13;18496095;32;20086;-61
2022/07/26 13:07:58;;;;;;;1.65;0.80;;;;;;;30.36;35.76;97790.94;18482703;32;20102;-61
2022/07/26 13:18:03;;;;;;;1.08;0.70;;;;;;;29.75;37.67;97778.53;18509317;32;20135;-61
2022/07/26 13:28:08;;;;;;;1.08;0.60;;;;;;;30.53;38.76;97762.25;18516634;32;20106;-61
2022/07/26 13:38:12;;;;;;;0.73;0.60;;;;;;;30.56;37.19;97757.81;18516325;32;20060;-61
2022/07/26 13:48:14;;;;;;;1.50;0.57;;;;;;;31.24;32.68;97756.84;18502242;32;20072;-61
2022/07/26 13:58:20;;;;;;;1.05;0.80;;;;;;;31.42;31.47;97760.34;18515629;32;20361;-61
2022/07/26 14:08:23;;;;;;;1.25;0.75;;;;;;;31.87;33.81;97759.66;18515980;32;20378;-61
2022/07/26 14:18:26;;;;;;;1.58;0.60;;;;;;;32.37;31.43;97744.50;18515286;32;20072;-61
2022/07/26 14:28:29;;;;;;;1.77;0.60;;;;;;;32.60;28.99;97754.25;18508579;32;20068;-61
2022/07/26 14:38:33;;;;;;;2.92;0.80;;;;;;;32.36;29.34;97751.28;18490112;32;20069;-61
2022/07/26 14:48:36;;;;;;;2.75;0.80;;;;;;;33.03;32.41;97755.81;18503692;32;20075;-61
2022/07/26 14:58:56;;;;;;;2.60;1.02;;;;;;;32.98;34.63;97734.66;18491077;32;20091;-61
2022/07/26 15:08:59;;;;;;;1.23;0.85;;;;;;;32.41;33.29;97728.47;18488339;32;20057;-61
2022/07/26 15:19:02;;;;;;;2.28;0.80;;;;;;;30.58;34.31;97714.37;18487897;32;20112;-61
2022/07/26 15:29:04;;;;;;;1.23;0.85;;;;;;;29.33;34.12;97707.59;18487173;32;20113;-61
2022/07/26 15:39:07;;;;;;;1.15;0.60;;;;;;;28.62;35.81;97689.41;18486398;32;20093;-61
2022/07/26 15:49:19;;;;;;;1.17;0.60;;;;;;;28.23;34.23;97692.75;18500198;32;20408;-61
2022/07/26 15:59:22;;;;;;;1.20;0.40;;;;;;;28.00;40.09;97681.91;18499207;32;20087;-61
2022/07/26 16:09:25;;;;;;;0.98;0.57;;;;;;;27.59;36.93;97677.19;18499137;32;20056;-61
2022/07/26 16:19:28;;;;;;;0.93;0.70;;;;;;;27.29;40.95;97672.50;18484302;32;20057;-61
2022/07/26 16:29:31;;;;;;;0.70;0.45;;;;;;;27.35;36.17;97662.66;18496481;32;20181;-61
2022/07/26 16:39:34;;;;;;;1.15;0.50;;;;;;;28.29;40.44;97657.06;18496957;32;20123;-61
2022/07/26 16:49:38;;;;;;;0.80;0.60;;;;;;;27.82;35.27;97656.72;18494678;32;20100;-61
2022/07/26 16:59:40;;;;;;;1.85;0.55;;;;;;;27.41;38.32;97648.44;18495918;32;20138;-61
2022/07/26 17:09:43;;;;;;;0.88;0.52;;;;;;;27.19;40.53;97643.47;18494321;32;20437;-61
2022/07/26 17:19:47;;;;;;;1.05;0.50;;;;;;;26.47;41.64;97642.62;18481256;32;20116;-62
2022/07/26 17:29:51;;;;;;;2.65;0.57;;;;;;;25.83;43.93;97637.75;18495098;32;20090;-62
2022/07/26 17:39:54;;;;;;;1.73;0.73;;;;;;;25.53;44.51;97638.47;18481160;32;20097;-62
2022/07/26 17:50:00;;;;;;;3.40;0.73;;;;;;;25.36;40.76;97639.75;18480873;32;20053;-62
2022/07/26 18:00:22;;;;;;;1.40;0.60;;;;;;;25.04;43.83;97642.72;18497126;32;20049;-62
2022/07/26 18:10:30;;;;;;;1.10;0.73;;;;;;;24.94;48.34;97653.56;18506158;32;20076;-61
2022/07/26 18:20:34;;;;;;;3.72;0.93;;;;;;;25.04;45.06;97659.31;18491397;32;20069;-61
2022/07/26 18:30:37;;;;;;;0.82;0.50;;;;;;;24.86;42.18;97658.97;18490937;32;20049;-61
2022/07/26 18:40:39;;;;;;;1.70;0.60;;;;;;;24.53;40.52;97662.25;18490347;32;20071;-61
2022/07/26 18:50:42;;;;;;;1.20;0.60;;;;;;;24.20;43.41;97655.19;18503840;32;20081;-61
2022/07/26 19:00:46;;;;;;;0.62;0.45;;;;;;;23.75;44.50;97662.00;18502951;32;20089;-62
2022/07/26 19:10:50;;;;;;;0.93;0.40;;;;;;;23.32;47.46;97681.06;18501744;32;20053;-62
2022/07/26 19:20:55;;;;;;;1.60;0.60;;;;;;;22.80;52.53;97688.28;18502206;32;20061;-62
2022/07/26 19:31:01;;;;;;;0.88;0.50;;;;;;;22.14;54.39;97693.03;18501231;32;20101;-61
2022/07/26 19:41:06;;;;;;;1.10;0.62;;;;;;;21.50;57.75;97692.50;18486627;32;20406;-62
2022/07/26 19:51:11;;;;;;;1.77;0.73;;;;;;;20.94;62.21;97704.75;18500091;32;20061;-62
2022/07/26 20:01:16;;;;;;;2.15;0.60;;;;;;;20.46;63.92;97709.63;18498833;32;20388;-61
2022/07/26 20:11:23;;;;;;;1.00;0.80;;;;;;;20.22;65.26;97718.50;18484593;32;20071;-62
2022/07/26 20:21:27;;;;;;;1.25;0.90;;;;;;;20.09;68.01;97725.88;18498266;32;20076;-62
2022/07/26 20:31:30;;;;;;;2.08;1.10;;;;;;;20.04;70.10;97728.78;18497253;32;20075;-62
2022/07/26 20:41:33;;;;;;;2.78;0.77;;;;;;;19.95;69.73;97725.28;18496408;32;20109;-62
2022/07/26 20:51:36;;;;;;;0.70;0.45;;;;;;;19.72;68.06;97739.25;18496451;32;20493;-62
2022/07/26 21:01:39;;;;;;;0.80;0.60;;;;;;;19.67;70.12;97733.12;18495821;32;20057;-62
2022/07/26 21:11:45;;;;;;;1.00;0.60;;;;;;;19.58;72.99;97731.22;18495916;32;20061;-62
2022/07/26 21:21:49;;;;;;;4.03;0.65;;;;;;;19.41;74.15;97731.28;18495486;32;20080;-62
2022/07/26 21:31:51;;;;;;;2.45;0.60;;;;;;;19.15;71.97;97748.56;18481108;32;20471;-62
2022/07/26 21:41:54;;;;;;;0.93;0.57;;;;;;;19.02;69.69;97744.06;18492346;32;20065;-62
2022/07/26 21:51:56;;;;;;;1.87;0.80;;;;;;;18.95;71.11;97753.59;18507247;32;20428;-62
2022/07/26 22:02:00;;;;;;;0.50;0.40;;;;;;;18.74;74.13;97749.84;18506373;32;20049;-62
2022/07/26 22:12:03;;;;;;;1.37;0.65;;;;;;;18.45;74.82;97767.72;18505086;32;20048;-62
2022/07/26 22:22:07;;;;;;;1.33;0.53;;;;;;;18.28;74.99;97760.25;18505461;32;20338;-62
2022/07/26 22:32:10;;;;;;;;;;;;;;;18.08;75.99;97767.13;18505206;32;20072;-62
2022/07/26 22:42:13;;;;;;;1.05;0.60;;;;;;;17.86;76.44;97766.06;18490682;32;19967;-62
2022/07/26 22:52:17;;;;;;;;;;;;;;;17.67;78.22;97752.63;18502921;32;20079;-62
2022/07/26 23:02:20;;;;;;;1.77;0.77;;;;;;;17.49;78.04;97773.59;18502123;32;20329;-62
2022/07/26 23:12:24;;;;;;;2.03;0.88;;;;;;;17.32;77.74;97776.22;18502691;32;20069;-62
2022/07/26 23:22:26;;;;;;;1.92;0.80;;;;;;;17.18;80.01;97770.81;18501994;32;20069;-62
2022/07/26 23:32:29;;;;;;;1.62;1.12;;;;;;;17.20;82.14;97766.66;18501143;32;20049;-62
2022/07/26 23:42:31;;;;;;;2.65;1.00;;;;;;;17.33;82.87;97764.97;18500637;32;20064;-62
2022/07/26 23:52:34;;;;;;;1.12;0.70;;;;;;;17.36;81.73;97777.19;18485933;32;20064;-62
